Terminal Aerodrome Forecast
Issued by NWS

Home | Current Version | Previous Version | Graphics & Text | Print | Product List | Glossary On
Versions: 1 2 3 4 5 6 7 8 9 10 11 12 13 14 15 16 17 18 19 20 21 22 23 24 25 26 27 28 29 30 31 32 33 34 35 36 37 38 39 40 41 42 43 44
000
FTUS43 KLOT 231100
TAFDPA
TAF
KDPA 231135Z 2312/2412 18010KT P6SM SCT025 BKN050 OVC070
      WS020/21040KT
     FM231400 18011KT 6SM -SHRA BR SCT007 BKN015 OVC025
     FM231700 15012G18KT 5SM BR VCSH OVC015
     FM232200 15012KT 2SM RA BR OVC006
     FM240300 18010KT 2SM RA BR OVC004
     FM240600 20008KT 1 1/2SM -RA BR OVC004=

USA.gov is the U.S. government's official web portal to all federal, state and local government web resources and services.